Time,TemperatureF,DewpointF,PressureIn,WindDirection,WindDirectionDegrees,WindSpeedMPH,WindSpeedGustMPH,Humidity,HourlyPrecipIn,Conditions,Clouds,dailyrainin,SoftwareType,DateUTC
2013-08-08 00:05:00,77.5,76.3,29.90,West,270,1.6,-999.0,96,-99.99,,,0.00,Acu-Link.com,2013-08-08 04:05:00,
2013-08-08 00:20:00,77.9,77.0,29.89,NE,45,0.0,-999.0,97,-99.99,,,0.00,Acu-Link.com,2013-08-08 04:20:00,
2013-08-08 00:35:00,77.7,76.8,29.89,South,180,0.0,-999.0,97,-99.99,,,0.00,Acu-Link.com,2013-08-08 04:35:00,
2013-08-08 00:51:00,77.9,77.0,29.89,West,270,0.0,-999.0,97,-99.99,,,0.00,Acu-Link.com,2013-08-08 04:51:00,
2013-08-08 01:06:00,77.5,76.6,29.89,West,270,2.2,-999.0,97,-99.99,,,0.00,Acu-Link.com,2013-08-08 05:06:00,
2013-08-08 01:21:00,77.4,76.4,29.88,West,270,0.0,-999.0,97,-99.99,,,0.00,Acu-Link.com,2013-08-08 05:21:00,
2013-08-08 01:36:00,77.2,75.9,29.88,SSW,202,2.2,-999.0,96,-99.99,,,0.00,Acu-Link.com,2013-08-08 05:36:00,
2013-08-08 01:51:00,77.5,76.3,29.87,West,270,2.2,-999.0,96,-99.99,,,0.00,Acu-Link.com,2013-08-08 05:51:00,
2013-08-08 02:07:00,77.2,75.9,29.88,WSW,247,0.0,-999.0,96,-99.99,,,0.00,Acu-Link.com,2013-08-08 06:07:00,
2013-08-08 02:22:00,77.2,75.9,29.88,SSE,157,2.2,-999.0,96,-99.99,,,0.00,Acu-Link.com,2013-08-08 06:22:00,
2013-08-08 02:37:00,77.2,75.6,29.87,SSW,202,2.2,-999.0,95,-99.99,,,0.00,Acu-Link.com,2013-08-08 06:37:00,
2013-08-08 02:52:00,76.8,75.3,29.87,ESE,112,2.7,-999.0,95,-99.99,,,0.00,Acu-Link.com,2013-08-08 06:52:00,
2013-08-08 03:08:00,77.0,74.8,29.87,ESE,112,2.2,-999.0,93,-99.99,,,0.00,Acu-Link.com,2013-08-08 07:08:00,
2013-08-08 03:23:00,77.0,74.5,29.87,NE,45,0.0,-999.0,92,-99.99,,,0.00,Acu-Link.com,2013-08-08 07:23:00,
2013-08-08 03:38:00,77.0,74.8,29.86,ESE,112,1.6,-999.0,93,-99.99,,,0.00,Acu-Link.com,2013-08-08 07:38:00,
2013-08-08 03:53:00,76.8,74.6,29.86,South,180,0.0,-999.0,93,-99.99,,,0.00,Acu-Link.com,2013-08-08 07:53:00,
2013-08-08 04:08:00,76.8,75.0,29.86,NW,315,0.0,-999.0,94,-99.99,,,0.00,Acu-Link.com,2013-08-08 08:08:00,
2013-08-08 04:24:00,76.5,74.9,29.86,ENE,67,0.0,-999.0,95,-99.99,,,0.00,Acu-Link.com,2013-08-08 08:24:00,
2013-08-08 04:39:00,76.6,75.1,29.86,NE,45,0.0,-999.0,95,-99.99,,,0.00,Acu-Link.com,2013-08-08 08:39:00,
2013-08-08 04:54:00,76.5,74.9,29.86,SW,225,2.2,-999.0,95,-99.99,,,0.00,Acu-Link.com,2013-08-08 08:54:00,
2013-08-08 05:09:00,76.5,74.9,29.86,South,180,1.6,-999.0,95,-99.99,,,0.00,Acu-Link.com,2013-08-08 09:09:00,
2013-08-08 05:24:00,76.5,75.2,29.86,ESE,112,0.0,-999.0,96,-99.99,,,0.00,Acu-Link.com,2013-08-08 09:24:00,
2013-08-08 05:39:00,76.6,75.4,29.88,WSW,247,0.0,-999.0,96,-99.99,,,0.00,Acu-Link.com,2013-08-08 09:39:00,
2013-08-08 05:55:00,76.6,75.4,29.88,SSE,157,1.1,-999.0,96,-99.99,,,0.00,Acu-Link.com,2013-08-08 09:55:00,
2013-08-08 06:10:00,76.6,75.4,29.88,SSE,157,1.1,-999.0,96,-99.99,,,0.00,Acu-Link.com,2013-08-08 10:10:00,
2013-08-08 06:25:00,77.0,75.8,29.88,SSW,202,2.2,-999.0,96,-99.99,,,0.00,Acu-Link.com,2013-08-08 10:25:00,
2013-08-08 06:40:00,77.5,76.0,29.89,SSE,157,1.6,-999.0,95,-99.99,,,0.00,Acu-Link.com,2013-08-08 10:40:00,
2013-08-08 06:55:00,78.3,76.1,29.89,ESE,112,1.6,-999.0,93,-99.99,,,0.00,Acu-Link.com,2013-08-08 10:55:00,
2013-08-08 07:11:00,80.4,77.2,29.89,SSE,157,2.7,-999.0,90,-99.99,,,0.00,Acu-Link.com,2013-08-08 11:11:00,
2013-08-08 07:26:00,82.6,78.0,29.90,ESE,112,2.2,-999.0,86,-99.99,,,0.00,Acu-Link.com,2013-08-08 11:26:00,
2013-08-08 07:41:00,84.2,78.1,29.90,ESE,112,4.7,-999.0,82,-99.99,,,0.00,Acu-Link.com,2013-08-08 11:41:00,
2013-08-08 07:56:00,85.3,77.6,29.90,ESE,112,4.3,-999.0,78,-99.99,,,0.00,Acu-Link.com,2013-08-08 11:56:00,
2013-08-08 08:11:00,85.8,77.0,29.90,SSE,157,5.1,-999.0,75,-99.99,,,0.00,Acu-Link.com,2013-08-08 12:11:00,
2013-08-08 08:26:00,84.4,76.0,29.90,ESE,112,8.9,-999.0,76,-99.99,,,0.00,Acu-Link.com,2013-08-08 12:26:00,
2013-08-08 08:42:00,84.9,75.7,29.90,SSE,157,5.8,-999.0,74,-99.99,,,0.00,Acu-Link.com,2013-08-08 12:42:00,
2013-08-08 08:57:00,86.0,76.3,29.91,ENE,67,5.1,-999.0,73,-99.99,,,0.00,Acu-Link.com,2013-08-08 12:57:00,
2013-08-08 09:12:00,86.5,76.0,29.91,ESE,112,6.3,-999.0,71,-99.99,,,0.00,Acu-Link.com,2013-08-08 13:12:00,
2013-08-08 09:27:00,87.1,75.6,29.91,ESE,112,8.9,-999.0,69,-99.99,,,0.00,Acu-Link.com,2013-08-08 13:27:00,
2013-08-08 09:43:00,85.5,75.8,29.91,ESE,112,7.4,-999.0,73,-99.99,,,0.00,Acu-Link.com,2013-08-08 13:43:00,
2013-08-08 09:58:00,85.8,75.3,29.91,ESE,112,6.7,-999.0,71,-99.99,,,0.00,Acu-Link.com,2013-08-08 13:58:00,
2013-08-08 10:13:00,88.0,75.6,29.91,ENE,67,10.3,-999.0,67,-99.99,,,0.00,Acu-Link.com,2013-08-08 14:13:00,
2013-08-08 10:28:00,88.0,74.2,29.91,SE,135,7.4,-999.0,64,-99.99,,,0.00,Acu-Link.com,2013-08-08 14:28:00,
2013-08-08 10:43:00,89.2,75.0,29.91,ESE,112,8.9,-999.0,63,-99.99,,,0.00,Acu-Link.com,2013-08-08 14:43:00,
2013-08-08 10:59:00,89.6,76.2,29.90,ESE,112,5.8,-999.0,65,-99.99,,,0.00,Acu-Link.com,2013-08-08 14:59:00,
2013-08-08 11:14:00,89.4,76.1,29.90,ESE,112,7.8,-999.0,65,-99.99,,,0.00,Acu-Link.com,2013-08-08 15:14:00,
2013-08-08 11:29:00,89.2,77.3,29.90,SSW,202,5.1,-999.0,68,-99.99,,,0.00,Acu-Link.com,2013-08-08 15:29:00,
2013-08-08 11:44:00,89.8,77.3,29.89,ESE,112,9.8,-999.0,67,-99.99,,,0.00,Acu-Link.com,2013-08-08 15:44:00,
2013-08-08 11:59:00,90.1,77.7,29.89,ESE,112,9.8,-999.0,67,-99.99,,,0.00,Acu-Link.com,2013-08-08 15:59:00,
2013-08-08 12:15:00,90.0,77.5,29.89,ESE,112,11.9,-999.0,67,-99.99,,,0.00,Acu-Link.com,2013-08-08 16:15:00,
2013-08-08 12:30:00,90.3,75.0,29.88,SSE,157,8.3,-999.0,61,-99.99,,,0.00,Acu-Link.com,2013-08-08 16:30:00,
2013-08-08 12:45:00,90.3,77.4,29.88,NE,45,9.4,-999.0,66,-99.99,,,0.00,Acu-Link.com,2013-08-08 16:45:00,
2013-08-08 13:00:00,90.3,76.9,29.88,ENE,67,10.3,-999.0,65,-99.99,,,0.00,Acu-Link.com,2013-08-08 17:00:00,
2013-08-08 13:15:00,90.1,77.2,29.87,ENE,67,8.3,-999.0,66,-99.99,,,0.00,Acu-Link.com,2013-08-08 17:15:00,
2013-08-08 13:31:00,89.8,77.8,29.87,ENE,67,9.4,-999.0,68,-99.99,,,0.00,Acu-Link.com,2013-08-08 17:31:00,
2013-08-08 13:46:00,89.8,76.4,29.86,ESE,112,7.8,-999.0,65,-99.99,,,0.00,Acu-Link.com,2013-08-08 17:46:00,
2013-08-08 14:01:00,90.0,76.6,29.86,ENE,67,8.3,-999.0,65,-99.99,,,0.00,Acu-Link.com,2013-08-08 18:01:00,
2013-08-08 14:16:00,89.6,76.7,29.86,ESE,112,14.5,-999.0,66,-99.99,,,0.00,Acu-Link.com,2013-08-08 18:16:00,
2013-08-08 14:32:00,89.2,75.9,29.86,East,90,9.4,-999.0,65,-99.99,,,0.00,Acu-Link.com,2013-08-08 18:32:00,
2013-08-08 14:47:00,89.2,77.3,29.85,South,180,8.9,-999.0,68,-99.99,,,0.00,Acu-Link.com,2013-08-08 18:47:00,
2013-08-08 15:02:00,89.1,77.5,29.85,ESE,112,9.4,-999.0,69,-99.99,,,0.00,Acu-Link.com,2013-08-08 19:02:00,
2013-08-08 15:17:00,89.2,77.7,29.84,SE,135,8.9,-999.0,69,-99.99,,,0.00,Acu-Link.com,2013-08-08 19:17:00,
2013-08-08 15:32:00,89.6,78.0,29.84,East,90,8.9,-999.0,69,-99.99,,,0.00,Acu-Link.com,2013-08-08 19:32:00,
2013-08-08 15:48:00,89.2,77.7,29.84,East,90,13.0,-999.0,69,-99.99,,,0.00,Acu-Link.com,2013-08-08 19:48:00,
2013-08-08 16:03:00,89.1,77.1,29.84,ENE,67,9.8,-999.0,68,-99.99,,,0.00,Acu-Link.com,2013-08-08 20:03:00,
2013-08-08 16:18:00,88.3,76.0,29.83,East,90,14.1,-999.0,67,-99.99,,,0.00,Acu-Link.com,2013-08-08 20:18:00,
2013-08-08 16:33:00,88.7,76.7,29.84,SE,135,11.4,-999.0,68,-99.99,,,0.00,Acu-Link.com,2013-08-08 20:33:00,
2013-08-08 16:48:00,88.5,77.5,29.83,SE,135,11.4,-999.0,70,-99.99,,,0.00,Acu-Link.com,2013-08-08 20:48:00,
2013-08-08 17:04:00,85.5,74.1,29.84,SSE,157,9.8,-999.0,69,-99.99,,,0.00,Acu-Link.com,2013-08-08 21:04:00,
2013-08-08 17:19:00,81.7,76.7,29.85,SE,135,4.3,-999.0,85,-99.99,,,0.01,Acu-Link.com,2013-08-08 21:19:00,
2013-08-08 17:34:00,82.6,76.9,29.85,ESE,112,2.7,-999.0,83,-99.99,,,0.04,Acu-Link.com,2013-08-08 21:34:00,
2013-08-08 17:49:00,82.8,77.4,29.85,ESE,112,2.2,-999.0,84,-99.99,,,0.04,Acu-Link.com,2013-08-08 21:49:00,
2013-08-08 18:04:00,84.0,77.5,29.86,South,180,2.2,-999.0,81,-99.99,,,0.04,Acu-Link.com,2013-08-08 22:04:00,
2013-08-08 18:20:00,84.4,77.5,29.86,ENE,67,1.1,-999.0,80,-99.99,,,0.04,Acu-Link.com,2013-08-08 22:20:00,
2013-08-08 18:35:00,84.2,77.3,29.86,East,90,4.7,-999.0,80,-99.99,,,0.04,Acu-Link.com,2013-08-08 22:35:00,
2013-08-08 18:50:00,83.7,76.8,29.86,ENE,67,5.1,-999.0,80,-99.99,,,0.04,Acu-Link.com,2013-08-08 22:50:00,
2013-08-08 19:05:00,83.1,77.0,29.86,NE,45,7.8,-999.0,82,-99.99,,,0.04,Acu-Link.com,2013-08-08 23:05:00,
2013-08-08 19:21:00,78.4,74.2,29.88,SW,225,3.8,-999.0,87,-99.99,,,0.04,Acu-Link.com,2013-08-08 23:21:00,
2013-08-08 19:36:00,79.3,75.1,29.88,South,180,1.1,-999.0,87,-99.99,,,0.04,Acu-Link.com,2013-08-08 23:36:00,
2013-08-08 19:51:00,79.5,75.3,29.89,West,270,2.2,-999.0,87,-99.99,,,0.04,Acu-Link.com,2013-08-08 23:51:00,
2013-08-08 20:06:00,80.4,76.5,29.89,SE,135,2.2,-999.0,88,-99.99,,,0.04,Acu-Link.com,2013-08-09 00:06:00,
2013-08-08 20:21:00,79.9,76.3,29.89,SSW,202,2.7,-999.0,89,-99.99,,,0.04,Acu-Link.com,2013-08-09 00:21:00,
2013-08-08 20:37:00,79.9,75.7,29.89,SSE,157,2.7,-999.0,87,-99.99,,,0.04,Acu-Link.com,2013-08-09 00:37:00,
2013-08-08 20:52:00,80.4,76.2,29.90,SSE,157,1.6,-999.0,87,-99.99,,,0.04,Acu-Link.com,2013-08-09 00:52:00,
2013-08-08 21:07:00,80.4,76.2,29.91,ESE,112,3.8,-999.0,87,-99.99,,,0.04,Acu-Link.com,2013-08-09 01:07:00,
2013-08-08 21:22:00,80.1,75.8,29.91,SW,225,2.2,-999.0,87,-99.99,,,0.04,Acu-Link.com,2013-08-09 01:22:00,
2013-08-08 21:37:00,80.6,76.4,29.92,South,180,5.1,-999.0,87,-99.99,,,0.04,Acu-Link.com,2013-08-09 01:37:00,
2013-08-08 21:53:00,80.6,76.7,29.92,SE,135,3.1,-999.0,88,-99.99,,,0.04,Acu-Link.com,2013-08-09 01:53:00,
2013-08-08 22:08:00,81.7,76.4,29.92,SE,135,7.4,-999.0,84,-99.99,,,0.04,Acu-Link.com,2013-08-09 02:08:00,
2013-08-08 22:23:00,80.6,76.7,29.93,SW,225,2.2,-999.0,88,-99.99,,,0.04,Acu-Link.com,2013-08-09 02:23:00,
2013-08-08 22:38:00,80.6,77.0,29.93,SE,135,3.8,-999.0,89,-99.99,,,0.04,Acu-Link.com,2013-08-09 02:38:00,
2013-08-08 22:54:00,81.0,76.4,29.93,ESE,112,3.1,-999.0,86,-99.99,,,0.04,Acu-Link.com,2013-08-09 02:54:00,
2013-08-08 23:09:00,80.4,76.2,29.92,SSW,202,3.1,-999.0,87,-99.99,,,0.04,Acu-Link.com,2013-08-09 03:09:00,
2013-08-08 23:24:00,79.9,77.0,29.92,SSW,202,3.1,-999.0,91,-99.99,,,0.07,Acu-Link.com,2013-08-09 03:24:00,
2013-08-08 23:39:00,79.5,77.0,29.93,South,180,3.1,-999.0,92,-99.99,,,0.07,Acu-Link.com,2013-08-09 03:39:00,
2013-08-08 23:54:00,79.5,77.0,29.92,West,270,4.3,-999.0,92,-99.99,,,0.07,Acu-Link.com,2013-08-09 03:54:00,